createdAt,value
2022-12-04T19:01:53.309Z,403.02
2022-12-04T19:04:22.201Z,387.70
2022-12-04T19:06:54.249Z,342.73
2022-12-04T19:09:40.834Z,385.38
2022-12-04T19:14:23.521Z,12.13
2022-12-04T19:16:51.211Z,8.93
2022-12-04T19:19:18.376Z,11.07
2022-12-04T19:21:45.591Z,5.63
2022-12-04T19:24:12.806Z,8.48
2022-12-04T19:26:39.803Z,9.77
2022-12-04T19:29:07.140Z,12.82
2022-12-04T19:31:35.727Z,14.77
2022-12-04T19:34:02.849Z,14.80
2022-12-04T19:36:30.854Z,9.13
2022-12-04T19:38:58.034Z,10.98
2022-12-04T19:41:26.563Z,9.85
2022-12-04T19:43:56.327Z,6.82
2022-12-04T19:46:26.158Z,6.45
2022-12-04T19:48:58.775Z,8.18
2022-12-04T19:51:25.991Z,10.32
2022-12-04T19:53:54.097Z,7.70
2022-12-04T19:56:26.053Z,8.05
2022-12-04T19:58:53.763Z,8.50
2022-12-04T20:01:24.091Z,7.95
2022-12-04T20:03:51.337Z,8.70
2022-12-04T20:06:19.997Z,7.35
2022-12-04T20:08:47.301Z,6.72
2022-12-04T20:11:17.512Z,6.78
2022-12-04T20:13:45.570Z,4.75
2022-12-04T20:16:14.616Z,6.53
2022-12-04T20:18:42.559Z,5.78
2022-12-04T20:21:12.868Z,6.60
2022-12-04T20:23:41.248Z,6.03
2022-12-04T20:26:09.394Z,5.47
2022-12-04T20:28:36.571Z,5.00
2022-12-04T20:31:17.679Z,3.45
2022-12-04T20:33:46.170Z,7.13
2022-12-04T20:36:13.415Z,4.40
2022-12-04T20:38:40.515Z,3.65
2022-12-04T20:41:09.164Z,3.67
2022-12-04T20:43:36.647Z,4.82
2022-12-04T20:46:18.998Z,4.68
2022-12-04T20:48:49.588Z,3.47
2022-12-04T20:51:18.562Z,5.10
2022-12-04T20:53:46.242Z,1.75
2022-12-04T20:56:13.354Z,2.97
2022-12-04T20:58:40.517Z,2.67
2022-12-04T21:01:12.427Z,4.32
2022-12-04T21:03:39.684Z,3.63
2022-12-04T21:06:15.362Z,3.97
2022-12-04T21:09:03.240Z,2.88
2022-12-04T21:11:32.475Z,2.20
2022-12-04T21:14:18.838Z,2.83
2022-12-04T21:16:46.091Z,2.50
2022-12-04T21:19:14.391Z,1.83
2022-12-04T21:21:41.451Z,2.60
2022-12-04T21:24:09.668Z,2.28
2022-12-04T21:26:36.782Z,1.90
2022-12-04T21:29:04.210Z,1.80
2022-12-04T21:31:31.366Z,1.92
2022-12-04T21:33:59.458Z,2.45
2022-12-04T21:36:26.785Z,4.05
2022-12-04T21:38:53.894Z,0.80
2022-12-04T21:41:40.002Z,1.77
2022-12-04T21:44:08.307Z,2.47
2022-12-04T21:46:35.550Z,2.60
2022-12-04T21:49:02.954Z,2.47
2022-12-04T21:51:55.855Z,4.63
2022-12-04T21:54:17.382Z,6.10
2022-12-04T21:56:44.403Z,2.58
2022-12-04T21:59:11.546Z,2.08
2022-12-04T22:01:38.628Z,2.03
2022-12-04T22:04:05.825Z,1.63
2022-12-04T22:06:36.141Z,2.13
2022-12-04T22:09:06.027Z,3.45
2022-12-04T22:11:33.423Z,2.40
2022-12-04T22:14:00.589Z,2.88
2022-12-04T22:16:30.526Z,1.45
2022-12-04T22:18:58.839Z,1.60
2022-12-04T22:21:26.134Z,2.78
2022-12-04T22:24:00.693Z,2.03
2022-12-04T22:26:28.334Z,2.10
2022-12-04T22:28:55.853Z,1.63
2022-12-04T22:31:25.924Z,1.42
2022-12-04T22:33:54.200Z,2.40
2022-12-04T22:36:23.627Z,1.70
2022-12-04T22:39:09.874Z,2.28
2022-12-04T22:41:37.566Z,2.47
2022-12-04T22:44:05.065Z,1.25
2022-12-04T22:46:32.624Z,3.72
2022-12-04T22:49:00.019Z,2.13
2022-12-04T22:51:27.375Z,1.92
2022-12-04T22:53:56.630Z,2.33
2022-12-04T22:56:30.640Z,2.17
2022-12-04T22:58:58.625Z,2.95
2022-12-04T23:01:31.743Z,2.90
2022-12-04T23:03:58.988Z,2.40
2022-12-04T23:06:28.091Z,1.52
2022-12-04T23:09:14.758Z,3.25
2022-12-04T23:11:42.269Z,2.08
2022-12-04T23:14:11.140Z,1.60
2022-12-04T23:16:38.888Z,1.45
2022-12-04T23:19:07.820Z,2.40
2022-12-04T23:21:35.007Z,2.08
2022-12-04T23:24:02.157Z,1.17
2022-12-04T23:26:33.926Z,2.80
2022-12-04T23:29:01.705Z,2.70
2022-12-04T23:31:29.475Z,2.15
2022-12-04T23:33:56.574Z,3.05
2022-12-04T23:36:23.836Z,1.38
2022-12-04T23:38:50.910Z,2.33
2022-12-04T23:41:25.763Z,1.38
2022-12-04T23:43:53.138Z,1.58
2022-12-04T23:46:32.318Z,2.22
2022-12-04T23:49:00.147Z,1.85
2022-12-04T23:51:27.409Z,2.08
2022-12-04T23:53:54.473Z,2.70
2022-12-04T23:56:23.419Z,2.38
2022-12-04T23:58:51.356Z,2.20
